createdAt,value
2022-12-19T00:02:00.086Z,14.27
2022-12-19T00:04:28.148Z,15.30
2022-12-19T00:06:58.699Z,19.53
2022-12-19T00:09:27.313Z,21.53
2022-12-19T00:11:55.430Z,18.60
2022-12-19T00:14:23.348Z,19.87
2022-12-19T00:16:51.301Z,17.93
2022-12-19T00:19:21.212Z,16.63
2022-12-19T00:21:49.141Z,26.03
2022-12-19T00:24:21.083Z,25.30
2022-12-19T00:26:50.129Z,21.47
2022-12-19T00:29:18.155Z,28.47
2022-12-19T00:31:46.174Z,24.73
2022-12-19T00:34:14.144Z,26.20
2022-12-19T00:36:43.709Z,25.60
2022-12-19T00:39:11.941Z,27.00
2022-12-19T00:41:42.512Z,27.20
2022-12-19T00:44:17.205Z,22.83
2022-12-19T00:46:47.142Z,31.07
2022-12-19T00:49:21.000Z,26.87
2022-12-19T00:51:50.359Z,28.27
2022-12-19T00:54:18.349Z,27.77
2022-12-19T00:56:46.307Z,25.83
2022-12-19T00:59:14.343Z,26.87
2022-12-19T01:01:44.615Z,33.10
2022-12-19T01:04:32.589Z,27.87
2022-12-19T01:07:05.803Z,26.03
2022-12-19T01:09:35.338Z,31.50
2022-12-19T01:12:21.035Z,27.77
2022-12-19T01:14:54.079Z,28.40
2022-12-19T01:17:24.114Z,29.00
2022-12-19T01:19:52.046Z,31.40
2022-12-19T01:22:21.368Z,27.87
2022-12-19T01:24:49.319Z,26.87
2022-12-19T01:27:17.328Z,25.20
2022-12-19T01:29:52.699Z,27.10
2022-12-19T01:32:21.446Z,25.97
2022-12-19T01:34:49.424Z,31.00
2022-12-19T01:37:21.719Z,28.63
2022-12-19T01:39:49.741Z,30.53
2022-12-19T01:42:20.269Z,28.67
2022-12-19T01:45:32.026Z,33.60
2022-12-19T01:48:08.238Z,26.27
2022-12-19T01:50:40.793Z,31.60
2022-12-19T01:53:15.859Z,29.43
2022-12-19T01:55:45.453Z,29.03
2022-12-19T01:58:14.619Z,27.13
2022-12-19T02:00:44.386Z,34.93
2022-12-19T02:03:17.669Z,30.83
2022-12-19T02:05:46.658Z,31.03
2022-12-19T02:08:16.064Z,32.47
2022-12-19T02:10:44.103Z,28.67
2022-12-19T02:13:12.567Z,26.97
2022-12-19T02:15:47.594Z,35.87
2022-12-19T02:18:25.698Z,31.90
2022-12-19T02:21:18.751Z,31.37
2022-12-19T02:24:21.126Z,26.03
2022-12-19T02:27:27.509Z,30.87
2022-12-19T02:30:11.206Z,28.50
2022-12-19T02:32:56.944Z,26.50
2022-12-19T02:35:32.215Z,29.20
2022-12-19T02:38:13.260Z,31.13
2022-12-19T02:40:46.139Z,30.67
2022-12-19T02:43:18.951Z,29.03
2022-12-19T02:45:49.039Z,28.17
2022-12-19T02:48:19.682Z,28.20
2022-12-19T02:50:50.317Z,24.77
2022-12-19T02:53:23.547Z,34.63
2022-12-19T02:55:59.198Z,27.30
2022-12-19T02:58:47.838Z,28.53
2022-12-19T03:01:25.823Z,27.63
2022-12-19T03:04:06.404Z,29.80
2022-12-19T03:06:41.576Z,28.27
2022-12-19T03:09:17.351Z,30.33
2022-12-19T03:11:48.018Z,28.93
2022-12-19T03:14:19.441Z,35.20
2022-12-19T03:16:47.676Z,28.87
2022-12-19T03:19:17.863Z,31.57
2022-12-19T03:21:50.375Z,33.97
2022-12-19T03:24:19.786Z,35.43
2022-12-19T03:26:53.129Z,34.57
2022-12-19T03:29:27.010Z,28.27
2022-12-19T03:31:56.330Z,29.73
2022-12-19T03:34:29.485Z,28.13
2022-12-19T03:37:02.386Z,31.83
2022-12-19T03:39:32.670Z,30.93
2022-12-19T03:42:20.575Z,27.73
2022-12-19T03:44:51.590Z,28.40
2022-12-19T03:47:24.766Z,30.63
2022-12-19T03:49:54.621Z,31.63
2022-12-19T03:52:30.015Z,29.73
2022-12-19T03:55:05.756Z,26.23
2022-12-19T03:57:38.980Z,27.83
2022-12-19T04:00:09.869Z,29.03
2022-12-19T04:02:40.095Z,28.37
2022-12-19T04:05:16.629Z,28.97
2022-12-19T04:07:46.134Z,37.43
2022-12-19T04:10:18.966Z,28.10
2022-12-19T04:12:51.254Z,34.13
2022-12-19T04:15:21.630Z,29.17
2022-12-19T04:17:53.432Z,27.10
2022-12-19T04:20:26.189Z,30.13
2022-12-19T04:22:59.701Z,30.67
2022-12-19T04:25:31.167Z,29.27
2022-12-19T04:28:03.692Z,27.70
2022-12-19T04:30:36.853Z,31.20
2022-12-19T04:33:05.144Z,30.87
2022-12-19T04:35:37.549Z,26.33
2022-12-19T04:38:05.806Z,30.63
2022-12-19T04:40:40.973Z,29.73
2022-12-19T04:43:09.905Z,27.63
2022-12-19T04:45:38.217Z,27.67
2022-12-19T04:48:07.645Z,27.03
2022-12-19T04:50:38.463Z,28.37
2022-12-19T04:53:07.534Z,37.60
2022-12-19T04:55:35.558Z,33.23
2022-12-19T04:58:06.861Z,29.10
2022-12-19T05:00:34.937Z,25.33
2022-12-19T05:03:03.179Z,32.90
2022-12-19T05:05:31.600Z,27.00
2022-12-19T05:08:00.977Z,32.90
2022-12-19T05:10:28.972Z,30.20
2022-12-19T05:12:56.951Z,27.20
2022-12-19T05:15:24.914Z,26.70
2022-12-19T05:17:52.922Z,32.83
2022-12-19T05:20:20.956Z,28.20
2022-12-19T05:22:48.980Z,25.80
2022-12-19T05:25:18.597Z,26.57
2022-12-19T05:27:46.558Z,27.60
2022-12-19T05:30:15.041Z,29.83
2022-12-19T05:32:43.049Z,31.20
2022-12-19T05:35:11.110Z,25.83
2022-12-19T05:37:39.105Z,29.63
2022-12-19T05:40:08.415Z,27.13
2022-12-19T05:42:37.817Z,26.90
2022-12-19T05:45:06.401Z,24.77
2022-12-19T05:47:34.425Z,28.43
2022-12-19T05:50:02.504Z,26.97
2022-12-19T05:52:30.481Z,27.20
2022-12-19T05:54:58.553Z,34.33
2022-12-19T05:57:27.104Z,32.50
2022-12-19T05:59:56.497Z,34.27
2022-12-19T06:02:24.819Z,26.43
2022-12-19T06:04:53.085Z,26.30
2022-12-19T06:07:21.516Z,32.50
2022-12-19T06:09:49.635Z,29.93
2022-12-19T06:12:17.857Z,26.07
2022-12-19T06:14:45.862Z,30.30
2022-12-19T06:17:15.287Z,28.23
2022-12-19T06:19:43.274Z,27.80
2022-12-19T06:22:17.229Z,29.37
2022-12-19T06:24:45.188Z,24.37
2022-12-19T06:27:13.258Z,28.73
2022-12-19T06:29:41.245Z,23.90
2022-12-19T06:32:09.250Z,30.07
2022-12-19T06:37:26.631Z,28.43
2022-12-19T06:39:54.707Z,27.53
2022-12-19T06:42:24.497Z,30.53
2022-12-19T06:44:54.169Z,26.13
2022-12-19T06:47:24.043Z,24.60
2022-12-19T06:49:53.479Z,25.60
2022-12-19T06:52:22.369Z,30.00
2022-12-19T06:54:50.422Z,30.27
2022-12-19T06:57:18.581Z,30.80
2022-12-19T06:59:46.645Z,29.77
2022-12-19T07:02:23.902Z,27.30
2022-12-19T07:04:58.889Z,26.97
2022-12-19T07:07:26.948Z,28.73
2022-12-19T07:09:54.997Z,30.80
2022-12-19T07:12:23.040Z,28.80
2022-12-19T07:14:53.527Z,32.63
2022-12-19T07:17:23.429Z,27.93
2022-12-19T07:19:58.319Z,30.83
2022-12-19T07:22:30.300Z,26.93
2022-12-19T07:24:58.782Z,28.20
2022-12-19T07:27:35.234Z,32.03
2022-12-19T07:30:04.846Z,31.30
2022-12-19T07:32:33.033Z,33.63
2022-12-19T07:35:02.637Z,29.30
2022-12-19T07:37:30.858Z,34.40
2022-12-19T07:39:58.876Z,33.80
2022-12-19T07:42:32.295Z,33.43
2022-12-19T07:45:01.453Z,34.10
2022-12-19T07:47:29.493Z,29.67
2022-12-19T07:49:57.517Z,37.53
2022-12-19T07:52:26.975Z,34.63
2022-12-19T07:54:55.234Z,37.17
2022-12-19T07:57:23.366Z,47.53
2022-12-19T07:59:51.356Z,47.57
2022-12-19T08:02:19.524Z,50.67
2022-12-19T08:04:47.586Z,42.13
2022-12-19T08:07:15.810Z,35.23
2022-12-19T08:09:45.438Z,33.30
2022-12-19T08:12:13.567Z,30.03
2022-12-19T08:14:41.581Z,32.70
2022-12-19T08:17:25.290Z,38.33
2022-12-19T08:19:53.359Z,33.87
2022-12-19T08:22:21.441Z,30.40
2022-12-19T08:24:51.042Z,26.20
2022-12-19T08:27:19.117Z,34.13
2022-12-19T08:29:47.530Z,30.93
2022-12-19T08:32:20.893Z,30.93
2022-12-19T08:34:49.542Z,35.30
2022-12-19T08:37:17.743Z,35.87
2022-12-19T08:39:45.856Z,31.17
2022-12-19T08:42:15.299Z,35.73
2022-12-19T08:44:43.314Z,26.90
2022-12-19T08:47:11.305Z,35.57
2022-12-19T08:49:39.371Z,28.93
2022-12-19T08:52:07.379Z,33.10
2022-12-19T08:54:35.536Z,35.17
2022-12-19T08:57:03.538Z,30.63
2022-12-19T08:59:32.920Z,30.07
2022-12-19T09:02:02.293Z,28.90
2022-12-19T09:05:58.358Z,35.70
2022-12-19T09:07:19.515Z,32.63
2022-12-19T09:09:47.820Z,33.47
2022-12-19T09:12:17.187Z,24.30
2022-12-19T09:14:46.718Z,27.90
2022-12-19T09:17:14.906Z,32.33
2022-12-19T09:19:47.460Z,35.07
2022-12-19T09:22:17.024Z,34.73
2022-12-19T09:24:45.360Z,31.93
2022-12-19T09:27:13.401Z,34.00
2022-12-19T09:29:42.504Z,30.93
2022-12-19T09:32:12.267Z,34.20
2022-12-19T09:34:40.450Z,31.63
2022-12-19T09:37:15.142Z,34.63
2022-12-19T09:39:46.125Z,32.50
2022-12-19T09:42:40.949Z,41.03
2022-12-19T09:45:32.097Z,35.60
2022-12-19T09:48:03.651Z,38.00
2022-12-19T09:50:49.170Z,39.10
2022-12-19T09:53:24.385Z,31.00
2022-12-19T09:55:53.811Z,31.53
2022-12-19T09:58:32.471Z,32.87
2022-12-19T10:01:03.766Z,29.47
2022-12-19T10:03:40.072Z,34.53
2022-12-19T10:07:09.440Z,30.70
2022-12-19T10:11:16.768Z,33.70
2022-12-19T10:12:45.128Z,33.37
2022-12-19T10:15:20.919Z,32.83
2022-12-19T10:18:17.675Z,34.73
2022-12-19T10:20:56.061Z,31.80
2022-12-19T10:23:54.270Z,34.53
2022-12-19T10:26:30.210Z,37.47
2022-12-19T10:29:18.607Z,46.67
2022-12-19T10:31:54.093Z,45.70
2022-12-19T10:34:24.198Z,40.90
2022-12-19T10:37:24.474Z,34.90
2022-12-19T10:39:54.327Z,34.17
2022-12-19T10:42:31.376Z,33.40
2022-12-19T10:45:02.735Z,38.20
2022-12-19T10:47:31.193Z,37.20
2022-12-19T10:50:03.984Z,34.67
2022-12-19T10:52:57.514Z,37.50
2022-12-19T10:55:44.622Z,30.17
2022-12-19T10:58:25.346Z,33.00
2022-12-19T11:01:12.891Z,32.33
2022-12-19T11:03:43.234Z,42.80
2022-12-19T11:06:49.889Z,40.70
2022-12-19T11:09:23.000Z,34.13
2022-12-19T11:16:01.420Z,28.73
2022-12-19T11:19:08.922Z,34.60
2022-12-19T11:27:44.013Z,31.53
2022-12-19T11:29:30.353Z,39.77
2022-12-19T11:29:40.888Z,29.50
2022-12-19T11:30:35.209Z,32.63
2022-12-19T11:30:37.770Z,31.90
2022-12-19T11:34:37.832Z,39.93
2022-12-19T11:37:17.087Z,34.20
2022-12-19T11:39:48.997Z,31.27
2022-12-19T11:42:24.189Z,27.30
2022-12-19T11:44:58.535Z,33.83
2022-12-19T11:47:34.802Z,28.40
2022-12-19T11:50:10.658Z,28.80
2022-12-19T11:55:40.636Z,33.20
2022-12-19T11:58:12.242Z,41.10
2022-12-19T12:00:44.868Z,30.13
2022-12-19T12:03:36.671Z,32.67
2022-12-19T12:06:11.489Z,33.83
2022-12-19T12:10:56.259Z,33.47
2022-12-19T12:20:06.114Z,29.93
2022-12-19T12:22:29.146Z,33.53
2022-12-19T12:31:01.973Z,29.03
2022-12-19T12:31:10.132Z,31.13
2022-12-19T12:31:42.784Z,28.40
2022-12-19T12:31:48.721Z,23.17
2022-12-19T12:32:04.538Z,33.10
2022-12-19T12:35:16.600Z,36.10
2022-12-19T12:38:48.446Z,32.20
2022-12-19T12:41:39.515Z,28.00
2022-12-19T12:44:12.020Z,35.97
2022-12-19T12:46:46.776Z,34.97
2022-12-19T12:49:31.522Z,33.83
2022-12-19T12:52:02.286Z,32.13
2022-12-19T12:54:34.755Z,33.63
2022-12-19T12:57:03.423Z,34.77
2022-12-19T12:59:32.791Z,35.70
2022-12-19T13:02:08.802Z,39.20
2022-12-19T13:04:43.180Z,32.27
2022-12-19T13:07:25.578Z,40.47
2022-12-19T13:10:07.065Z,32.07
2022-12-19T13:12:53.007Z,38.33
2022-12-19T13:15:37.459Z,35.17
2022-12-19T13:18:37.880Z,34.27
2022-12-19T13:21:09.579Z,40.00
2022-12-19T13:23:46.560Z,37.97
2022-12-19T13:26:46.015Z,40.13
2022-12-19T13:29:34.488Z,35.80
2022-12-19T13:32:14.336Z,35.73
2022-12-19T13:35:17.580Z,37.70
2022-12-19T13:40:00.637Z,39.47
2022-12-19T13:40:54.890Z,37.57
2022-12-19T13:43:43.792Z,33.27
2022-12-19T13:46:25.174Z,37.43
2022-12-19T13:48:57.269Z,35.13
2022-12-19T13:51:26.611Z,42.87
2022-12-19T13:53:59.612Z,40.17
2022-12-19T13:56:31.969Z,39.63
2022-12-19T13:59:02.489Z,38.03
2022-12-19T14:01:33.448Z,45.37
2022-12-19T14:04:08.115Z,40.40
2022-12-19T14:06:43.808Z,41.20
2022-12-19T14:11:27.677Z,41.00
2022-12-19T14:13:47.095Z,34.47
2022-12-19T14:15:33.387Z,41.40
2022-12-19T14:18:43.179Z,41.57
2022-12-19T14:22:04.136Z,38.23
2022-12-19T14:23:43.670Z,38.77
2022-12-19T14:28:18.107Z,36.40
2022-12-19T14:29:08.693Z,42.33
2022-12-19T14:31:39.818Z,37.33
2022-12-19T14:36:05.258Z,44.43
2022-12-19T14:39:20.871Z,42.43
2022-12-19T14:40:25.094Z,40.23
2022-12-19T14:44:00.162Z,37.87
2022-12-19T14:54:08.206Z,38.93
2022-12-19T14:54:14.084Z,38.87
2022-12-19T14:54:32.372Z,41.60
2022-12-19T14:56:03.726Z,36.87
2022-12-19T14:58:55.220Z,36.70
2022-12-19T15:01:27.345Z,38.70
2022-12-19T15:04:48.775Z,32.83
2022-12-19T15:07:06.901Z,37.47
2022-12-19T15:10:59.049Z,37.50
2022-12-19T15:14:51.381Z,38.57
2022-12-19T15:15:46.067Z,38.03
2022-12-19T15:18:21.296Z,40.23
2022-12-19T15:20:49.475Z,38.30
2022-12-19T15:23:22.048Z,37.63
2022-12-19T15:26:07.860Z,36.63
2022-12-19T15:28:41.975Z,38.80
2022-12-19T15:31:26.725Z,41.20
2022-12-19T15:36:42.826Z,35.27
2022-12-19T15:39:10.809Z,42.57
2022-12-19T15:41:38.814Z,44.07
2022-12-19T15:44:11.865Z,45.03
2022-12-19T15:46:46.407Z,37.73
2022-12-19T15:49:17.924Z,40.27
2022-12-19T15:51:46.360Z,37.53
2022-12-19T15:54:47.018Z,42.23
2022-12-19T15:57:02.444Z,45.83
2022-12-19T15:59:38.047Z,41.37
2022-12-19T16:02:16.982Z,38.57
2022-12-19T16:04:46.119Z,40.37
2022-12-19T16:07:17.044Z,41.77
2022-12-19T16:09:45.075Z,48.70
2022-12-19T16:12:16.516Z,44.40
2022-12-19T16:14:47.443Z,47.50
2022-12-19T16:17:21.049Z,40.83
2022-12-19T16:19:50.113Z,44.57
2022-12-19T16:22:20.003Z,38.43
2022-12-19T16:24:48.353Z,44.63
2022-12-19T16:27:23.432Z,41.80
2022-12-19T16:29:53.070Z,43.80
2022-12-19T16:32:23.027Z,43.57
2022-12-19T16:34:51.501Z,45.33
2022-12-19T16:37:19.522Z,34.73
2022-12-19T16:39:47.583Z,44.10
2022-12-19T16:42:17.182Z,43.57
2022-12-19T16:44:46.617Z,60.20
2022-12-19T16:47:17.891Z,60.67
2022-12-19T16:49:46.244Z,55.63
2022-12-19T16:52:14.250Z,50.70
2022-12-19T16:54:42.260Z,50.33
2022-12-19T16:57:19.340Z,44.17
2022-12-19T16:59:47.491Z,44.00
2022-12-19T17:02:38.530Z,44.30
2022-12-19T17:05:08.001Z,44.60
2022-12-19T17:07:36.597Z,47.87
2022-12-19T17:10:05.019Z,56.67
2022-12-19T17:12:33.052Z,42.83
2022-12-19T17:15:01.342Z,47.73
2022-12-19T17:17:30.644Z,48.13
2022-12-19T17:19:58.634Z,45.30
2022-12-19T17:22:26.606Z,50.93
2022-12-19T17:24:54.587Z,40.67
2022-12-19T17:27:23.356Z,46.60
2022-12-19T17:29:51.392Z,45.37
2022-12-19T17:32:23.907Z,50.77
2022-12-19T17:34:53.772Z,47.97
2022-12-19T17:37:22.118Z,47.70
2022-12-19T17:39:50.091Z,47.10
2022-12-19T17:42:25.467Z,40.57
2022-12-19T17:44:53.423Z,49.13
2022-12-19T17:47:21.884Z,45.60
2022-12-19T17:49:50.878Z,43.50
2022-12-19T17:52:21.122Z,44.97
2022-12-19T17:54:50.185Z,52.20
2022-12-19T17:57:19.420Z,52.87
2022-12-19T17:59:47.407Z,45.07
2022-12-19T18:02:21.555Z,42.70
2022-12-19T18:04:50.379Z,38.60
2022-12-19T18:07:20.632Z,46.03
2022-12-19T18:09:48.616Z,42.63
2022-12-19T18:12:16.636Z,50.03
2022-12-19T18:14:44.658Z,45.10
2022-12-19T18:17:14.437Z,41.50
2022-12-19T18:19:42.487Z,41.70
2022-12-19T18:22:13.861Z,47.20
2022-12-19T18:24:43.267Z,42.23
2022-12-19T18:27:12.112Z,41.20
2022-12-19T18:29:40.119Z,45.20
2022-12-19T18:32:10.468Z,47.80
2022-12-19T18:34:38.718Z,35.10
2022-12-19T18:37:06.748Z,41.63
2022-12-19T18:39:34.751Z,48.90
2022-12-19T18:42:10.832Z,40.03
2022-12-19T18:44:38.846Z,44.17
2022-12-19T18:47:07.670Z,45.87
2022-12-19T18:49:37.547Z,44.20
2022-12-19T18:52:05.850Z,43.23
2022-12-19T18:54:33.830Z,44.13
2022-12-19T18:57:03.190Z,38.80
2022-12-19T18:59:31.715Z,44.07
2022-12-19T19:02:00.279Z,38.10
2022-12-19T19:04:28.375Z,39.27
2022-12-19T19:06:56.355Z,38.63
2022-12-19T19:09:24.326Z,44.67
2022-12-19T19:11:52.318Z,43.80
2022-12-19T19:14:21.680Z,40.57
2022-12-19T19:16:49.860Z,38.77
2022-12-19T19:19:19.992Z,39.97
2022-12-19T19:21:48.002Z,45.47
2022-12-19T19:24:18.266Z,40.87
2022-12-19T19:26:46.276Z,40.87
2022-12-19T19:29:14.975Z,43.97
2022-12-19T19:31:48.613Z,34.67
2022-12-19T19:34:22.693Z,41.13
2022-12-19T19:36:55.885Z,43.87
2022-12-19T19:39:24.815Z,43.37
2022-12-19T19:41:53.608Z,42.47
2022-12-19T19:44:21.632Z,41.73
2022-12-19T19:46:51.228Z,42.90
2022-12-19T19:49:20.811Z,48.67
2022-12-19T19:51:48.797Z,41.23
2022-12-19T19:54:16.844Z,39.00
2022-12-19T19:56:44.838Z,42.83
2022-12-19T19:59:12.892Z,38.87
2022-12-19T20:01:40.967Z,41.37
2022-12-19T20:04:10.476Z,42.57
2022-12-19T20:06:38.533Z,36.57
2022-12-19T20:09:06.834Z,45.07
2022-12-19T20:11:34.841Z,43.10
2022-12-19T20:14:02.798Z,36.83
2022-12-19T20:16:30.972Z,42.47
2022-12-19T20:18:59.669Z,41.60
2022-12-19T20:21:30.681Z,39.47
2022-12-19T20:23:58.728Z,41.30
2022-12-19T20:26:26.720Z,43.53
2022-12-19T20:28:54.718Z,40.03
2022-12-19T20:31:24.978Z,35.33
2022-12-19T20:33:56.633Z,38.40
2022-12-19T20:36:25.533Z,36.57
2022-12-19T20:38:54.881Z,40.13
2022-12-19T20:41:22.997Z,40.03
2022-12-19T20:43:52.396Z,35.93
2022-12-19T20:46:22.156Z,42.90
2022-12-19T20:48:51.578Z,37.03
2022-12-19T20:51:21.176Z,36.00
2022-12-19T20:53:49.555Z,35.50
2022-12-19T20:56:19.917Z,31.83
2022-12-19T20:58:48.070Z,34.10
2022-12-19T21:01:18.307Z,35.63
2022-12-19T21:03:48.348Z,36.00
2022-12-19T21:06:19.377Z,36.77
2022-12-19T21:08:47.886Z,31.33
2022-12-19T21:11:17.035Z,37.50
2022-12-19T21:13:46.434Z,37.90
2022-12-19T21:16:16.076Z,35.70
2022-12-19T21:18:46.324Z,33.40
2022-12-19T21:21:17.294Z,36.70
2022-12-19T21:23:45.877Z,30.80
2022-12-19T21:26:14.084Z,34.83
2022-12-19T21:28:42.169Z,31.70
2022-12-19T21:31:16.539Z,36.50
2022-12-19T21:33:45.430Z,32.40
2022-12-19T21:36:16.610Z,33.10
2022-12-19T21:38:44.590Z,35.70
2022-12-19T21:41:18.633Z,32.00
2022-12-19T21:43:48.658Z,31.70
2022-12-19T21:46:19.001Z,30.67
2022-12-19T21:48:48.413Z,29.77
2022-12-19T21:51:18.597Z,32.00
2022-12-19T21:53:47.265Z,30.30
2022-12-19T21:56:23.258Z,35.00
2022-12-19T21:58:52.907Z,26.67
2022-12-19T22:01:22.877Z,28.67
2022-12-19T22:03:51.549Z,32.70
2022-12-19T22:06:27.645Z,29.67
2022-12-19T22:08:57.009Z,31.30
2022-12-19T22:11:25.658Z,28.73
2022-12-19T22:13:54.131Z,27.60
2022-12-19T22:16:23.629Z,26.87
2022-12-19T22:18:53.005Z,29.20
2022-12-19T22:21:21.447Z,26.30
2022-12-19T22:23:49.411Z,25.13
2022-12-19T22:26:19.186Z,28.57
2022-12-19T22:28:49.928Z,30.27
2022-12-19T22:31:20.238Z,29.77
2022-12-19T22:33:51.211Z,27.33
2022-12-19T22:36:25.765Z,28.63
2022-12-19T22:38:56.298Z,25.70
2022-12-19T22:41:24.317Z,29.60
2022-12-19T22:43:53.078Z,30.70
2022-12-19T22:46:23.900Z,26.17
2022-12-19T22:48:54.059Z,29.60
2022-12-19T22:51:22.038Z,28.70
2022-12-19T22:53:50.505Z,28.13
2022-12-19T22:56:24.150Z,32.90
2022-12-19T22:58:54.796Z,31.53
2022-12-19T23:01:24.693Z,28.97
2022-12-19T23:03:56.318Z,31.93
2022-12-19T23:06:25.821Z,27.77
2022-12-19T23:08:54.531Z,30.53
2022-12-19T23:11:24.450Z,30.50
2022-12-19T23:13:52.632Z,33.03
2022-12-19T23:16:20.610Z,28.67
2022-12-19T23:18:48.628Z,33.40
2022-12-19T23:21:19.636Z,30.30
2022-12-19T23:23:49.579Z,27.93
2022-12-19T23:26:20.246Z,34.80
2022-12-19T23:28:52.819Z,31.13
2022-12-19T23:31:20.984Z,31.40
2022-12-19T23:33:49.100Z,28.80
2022-12-19T23:36:38.237Z,32.10
2022-12-19T23:39:07.179Z,30.90
2022-12-19T23:41:35.184Z,29.00
2022-12-19T23:44:03.214Z,30.83
2022-12-19T23:46:31.278Z,26.90
2022-12-19T23:48:59.344Z,29.63
2022-12-19T23:51:28.981Z,31.67
2022-12-19T23:53:57.280Z,29.07
2022-12-19T23:56:26.841Z,31.77
2022-12-19T23:58:55.163Z,26.73
